sensor_id;sensor_type;location;lat;lon;timestamp;P1;durP1;ratioP1;P2;durP2;ratioP2
25359;SDS011;13311;51.386;0.016;2023-03-31T00:02:46;18.15;;;3.88;;
25359;SDS011;13311;51.386;0.016;2023-03-31T00:07:47;22.35;;;5.07;;
25359;SDS011;13311;51.386;0.016;2023-03-31T00:13:00;17.30;;;4.35;;
25359;SDS011;13311;51.386;0.016;2023-03-31T00:18:01;20.88;;;3.65;;
25359;SDS011;13311;51.386;0.016;2023-03-31T00:23:02;22.27;;;3.90;;
25359;SDS011;13311;51.386;0.016;2023-03-31T00:28:09;17.13;;;4.20;;
25359;SDS011;13311;51.386;0.016;2023-03-31T00:33:10;18.67;;;3.97;;
25359;SDS011;13311;51.386;0.016;2023-03-31T00:38:11;16.75;;;3.78;;
25359;SDS011;13311;51.386;0.016;2023-03-31T00:43:32;16.10;;;3.75;;
25359;SDS011;13311;51.386;0.016;2023-03-31T00:48:37;14.75;;;3.53;;
25359;SDS011;13311;51.386;0.016;2023-03-31T00:53:38;16.33;;;3.58;;
25359;SDS011;13311;51.386;0.016;2023-03-31T00:58:40;12.18;;;2.83;;
25359;SDS011;13311;51.386;0.016;2023-03-31T01:03:45;12.82;;;2.70;;
25359;SDS011;13311;51.386;0.016;2023-03-31T01:08:47;11.77;;;3.05;;
25359;SDS011;13311;51.386;0.016;2023-03-31T01:13:50;10.70;;;3.17;;
25359;SDS011;13311;51.386;0.016;2023-03-31T01:18:54;9.30;;;2.30;;
25359;SDS011;13311;51.386;0.016;2023-03-31T01:29:58;11.13;;;2.75;;
25359;SDS011;13311;51.386;0.016;2023-03-31T01:41:08;10.10;;;2.53;;
25359;SDS011;13311;51.386;0.016;2023-03-31T01:46:36;8.43;;;2.58;;
25359;SDS011;13311;51.386;0.016;2023-03-31T01:51:51;20.08;;;3.85;;
25359;SDS011;13311;51.386;0.016;2023-03-31T02:02:37;20.58;;;4.20;;
25359;SDS011;13311;51.386;0.016;2023-03-31T02:07:59;23.45;;;4.13;;
25359;SDS011;13311;51.386;0.016;2023-03-31T02:13:10;18.63;;;3.80;;
25359;SDS011;13311;51.386;0.016;2023-03-31T02:18:13;15.48;;;4.00;;
25359;SDS011;13311;51.386;0.016;2023-03-31T02:23:18;21.17;;;4.25;;
25359;SDS011;13311;51.386;0.016;2023-03-31T02:28:25;18.65;;;5.30;;
25359;SDS011;13311;51.386;0.016;2023-03-31T02:33:28;25.45;;;4.70;;
25359;SDS011;13311;51.386;0.016;2023-03-31T02:38:33;21.67;;;3.50;;
25359;SDS011;13311;51.386;0.016;2023-03-31T02:43:41;15.27;;;3.60;;
25359;SDS011;13311;51.386;0.016;2023-03-31T02:48:43;15.65;;;3.42;;
25359;SDS011;13311;51.386;0.016;2023-03-31T03:04:23;28.27;;;6.93;;
25359;SDS011;13311;51.386;0.016;2023-03-31T03:15:11;33.20;;;7.82;;
25359;SDS011;13311;51.386;0.016;2023-03-31T03:20:19;44.17;;;8.68;;
25359;SDS011;13311;51.386;0.016;2023-03-31T03:25:21;36.35;;;8.32;;
25359;SDS011;13311;51.386;0.016;2023-03-31T03:30:23;36.22;;;8.48;;
25359;SDS011;13311;51.386;0.016;2023-03-31T03:35:24;35.92;;;7.10;;
25359;SDS011;13311;51.386;0.016;2023-03-31T03:40:25;33.92;;;6.07;;
25359;SDS011;13311;51.386;0.016;2023-03-31T03:45:25;30.63;;;6.35;;
25359;SDS011;13311;51.386;0.016;2023-03-31T03:50:26;24.25;;;5.88;;
25359;SDS011;13311;51.386;0.016;2023-03-31T03:55:27;25.20;;;5.90;;
25359;SDS011;13311;51.386;0.016;2023-03-31T04:00:27;28.13;;;6.03;;
25359;SDS011;13311;51.386;0.016;2023-03-31T04:05:29;24.75;;;5.35;;
25359;SDS011;13311;51.386;0.016;2023-03-31T04:10:29;36.00;;;7.00;;
25359;SDS011;13311;51.386;0.016;2023-03-31T04:15:30;26.00;;;6.70;;
25359;SDS011;13311;51.386;0.016;2023-03-31T04:20:31;25.67;;;6.10;;
25359;SDS011;13311;51.386;0.016;2023-03-31T04:25:33;28.23;;;6.90;;
25359;SDS011;13311;51.386;0.016;2023-03-31T04:30:37;35.22;;;6.43;;
25359;SDS011;13311;51.386;0.016;2023-03-31T04:35:38;26.08;;;5.57;;
25359;SDS011;13311;51.386;0.016;2023-03-31T04:40:53;22.75;;;4.85;;
25359;SDS011;13311;51.386;0.016;2023-03-31T04:45:53;23.35;;;5.10;;
25359;SDS011;13311;51.386;0.016;2023-03-31T04:50:54;20.63;;;5.75;;
25359;SDS011;13311;51.386;0.016;2023-03-31T04:55:55;22.05;;;4.95;;
25359;SDS011;13311;51.386;0.016;2023-03-31T05:00:56;19.65;;;4.15;;
25359;SDS011;13311;51.386;0.016;2023-03-31T05:05:56;17.75;;;4.45;;
25359;SDS011;13311;51.386;0.016;2023-03-31T05:10:57;14.55;;;2.63;;
25359;SDS011;13311;51.386;0.016;2023-03-31T05:16:04;12.90;;;2.90;;
25359;SDS011;13311;51.386;0.016;2023-03-31T05:21:11;11.10;;;3.35;;
25359;SDS011;13311;51.386;0.016;2023-03-31T05:26:14;7.32;;;2.53;;
25359;SDS011;13311;51.386;0.016;2023-03-31T05:31:15;12.07;;;2.72;;
25359;SDS011;13311;51.386;0.016;2023-03-31T05:36:17;8.93;;;2.30;;
25359;SDS011;13311;51.386;0.016;2023-03-31T05:41:17;20.48;;;3.95;;
25359;SDS011;13311;51.386;0.016;2023-03-31T05:46:18;16.05;;;4.45;;
25359;SDS011;13311;51.386;0.016;2023-03-31T05:51:19;20.38;;;5.10;;
25359;SDS011;13311;51.386;0.016;2023-03-31T05:56:20;13.80;;;3.42;;
25359;SDS011;13311;51.386;0.016;2023-03-31T06:01:21;17.48;;;3.90;;
25359;SDS011;13311;51.386;0.016;2023-03-31T06:06:22;15.65;;;4.05;;
25359;SDS011;13311;51.386;0.016;2023-03-31T06:11:24;19.33;;;3.40;;
25359;SDS011;13311;51.386;0.016;2023-03-31T06:16:25;13.20;;;4.57;;
25359;SDS011;13311;51.386;0.016;2023-03-31T06:21:27;16.83;;;3.60;;
25359;SDS011;13311;51.386;0.016;2023-03-31T06:26:28;15.57;;;3.13;;
25359;SDS011;13311;51.386;0.016;2023-03-31T06:31:29;9.95;;;3.05;;
25359;SDS011;13311;51.386;0.016;2023-03-31T06:36:30;15.15;;;3.60;;
25359;SDS011;13311;51.386;0.016;2023-03-31T06:41:30;19.60;;;4.75;;
25359;SDS011;13311;51.386;0.016;2023-03-31T06:46:31;13.93;;;3.90;;
25359;SDS011;13311;51.386;0.016;2023-03-31T06:51:32;16.92;;;4.00;;
25359;SDS011;13311;51.386;0.016;2023-03-31T06:56:32;25.08;;;5.50;;
25359;SDS011;13311;51.386;0.016;2023-03-31T07:01:33;23.20;;;5.05;;
25359;SDS011;13311;51.386;0.016;2023-03-31T07:06:36;22.73;;;4.65;;
25359;SDS011;13311;51.386;0.016;2023-03-31T07:11:37;21.45;;;4.38;;
25359;SDS011;13311;51.386;0.016;2023-03-31T07:16:37;19.88;;;5.40;;
25359;SDS011;13311;51.386;0.016;2023-03-31T07:21:38;23.30;;;5.85;;
25359;SDS011;13311;51.386;0.016;2023-03-31T07:26:39;27.60;;;5.93;;
25359;SDS011;13311;51.386;0.016;2023-03-31T07:31:40;21.45;;;5.57;;
25359;SDS011;13311;51.386;0.016;2023-03-31T07:36:40;26.30;;;5.38;;
25359;SDS011;13311;51.386;0.016;2023-03-31T07:41:41;23.42;;;5.18;;
25359;SDS011;13311;51.386;0.016;2023-03-31T07:46:42;19.30;;;5.20;;
25359;SDS011;13311;51.386;0.016;2023-03-31T07:51:42;30.75;;;6.07;;
25359;SDS011;13311;51.386;0.016;2023-03-31T07:56:43;31.75;;;6.63;;
25359;SDS011;13311;51.386;0.016;2023-03-31T08:01:44;21.58;;;5.35;;
25359;SDS011;13311;51.386;0.016;2023-03-31T08:06:45;25.92;;;5.32;;
25359;SDS011;13311;51.386;0.016;2023-03-31T08:11:46;26.08;;;6.55;;
25359;SDS011;13311;51.386;0.016;2023-03-31T08:16:47;27.40;;;6.57;;
25359;SDS011;13311;51.386;0.016;2023-03-31T08:21:48;21.45;;;5.90;;
25359;SDS011;13311;51.386;0.016;2023-03-31T08:26:51;27.13;;;6.13;;
25359;SDS011;13311;51.386;0.016;2023-03-31T08:31:52;21.70;;;5.40;;
25359;SDS011;13311;51.386;0.016;2023-03-31T08:36:53;28.05;;;7.10;;
25359;SDS011;13311;51.386;0.016;2023-03-31T08:47:17;28.25;;;6.22;;
25359;SDS011;13311;51.386;0.016;2023-03-31T08:52:22;22.10;;;5.47;;
25359;SDS011;13311;51.386;0.016;2023-03-31T08:57:31;30.83;;;6.30;;
25359;SDS011;13311;51.386;0.016;2023-03-31T09:02:51;21.63;;;5.85;;
25359;SDS011;13311;51.386;0.016;2023-03-31T09:08:27;27.67;;;6.25;;
25359;SDS011;13311;51.386;0.016;2023-03-31T09:19:07;19.02;;;5.38;;
25359;SDS011;13311;51.386;0.016;2023-03-31T09:24:30;13.55;;;4.15;;
25359;SDS011;13311;51.386;0.016;2023-03-31T09:34:52;20.08;;;4.75;;
25359;SDS011;13311;51.386;0.016;2023-03-31T09:40:01;16.92;;;3.75;;
25359;SDS011;13311;51.386;0.016;2023-03-31T09:45:12;23.40;;;5.20;;
25359;SDS011;13311;51.386;0.016;2023-03-31T09:50:17;22.00;;;4.72;;
25359;SDS011;13311;51.386;0.016;2023-03-31T09:55:22;22.90;;;5.00;;
25359;SDS011;13311;51.386;0.016;2023-03-31T10:00:36;27.50;;;6.50;;
25359;SDS011;13311;51.386;0.016;2023-03-31T10:05:47;19.95;;;4.95;;
25359;SDS011;13311;51.386;0.016;2023-03-31T10:16:03;22.02;;;4.32;;
25359;SDS011;13311;51.386;0.016;2023-03-31T10:21:19;11.75;;;3.65;;
25359;SDS011;13311;51.386;0.016;2023-03-31T10:26:26;18.88;;;4.63;;
25359;SDS011;13311;51.386;0.016;2023-03-31T10:31:34;22.70;;;4.68;;
25359;SDS011;13311;51.386;0.016;2023-03-31T10:36:36;37.67;;;5.43;;
25359;SDS011;13311;51.386;0.016;2023-03-31T10:41:38;18.65;;;4.70;;
25359;SDS011;13311;51.386;0.016;2023-03-31T10:46:49;14.40;;;3.88;;
25359;SDS011;13311;51.386;0.016;2023-03-31T10:51:52;10.48;;;3.72;;
25359;SDS011;13311;51.386;0.016;2023-03-31T10:56:58;13.23;;;3.60;;
25359;SDS011;13311;51.386;0.016;2023-03-31T11:12:41;6.93;;;1.30;;
25359;SDS011;13311;51.386;0.016;2023-03-31T11:18:09;6.90;;;2.20;;
25359;SDS011;13311;51.386;0.016;2023-03-31T11:23:25;5.90;;;1.70;;
25359;SDS011;13311;51.386;0.016;2023-03-31T11:29:13;5.70;;;1.40;;
25359;SDS011;13311;51.386;0.016;2023-03-31T11:34:50;3.55;;;1.17;;
25359;SDS011;13311;51.386;0.016;2023-03-31T11:46:20;3.83;;;0.80;;
25359;SDS011;13311;51.386;0.016;2023-03-31T11:56:54;1.65;;;0.60;;
25359;SDS011;13311;51.386;0.016;2023-03-31T12:12:28;1.98;;;0.70;;
25359;SDS011;13311;51.386;0.016;2023-03-31T12:17:42;3.53;;;0.93;;
25359;SDS011;13311;51.386;0.016;2023-03-31T12:22:59;2.63;;;0.95;;
25359;SDS011;13311;51.386;0.016;2023-03-31T12:28:03;6.78;;;1.10;;
25359;SDS011;13311;51.386;0.016;2023-03-31T12:33:14;2.05;;;0.80;;
25359;SDS011;13311;51.386;0.016;2023-03-31T12:55:45;1.50;;;0.60;;
25359;SDS011;13311;51.386;0.016;2023-03-31T13:01:12;3.10;;;1.20;;
25359;SDS011;13311;51.386;0.016;2023-03-31T13:16:36;1.00;;;0.65;;
25359;SDS011;13311;51.386;0.016;2023-03-31T13:27:33;1.70;;;0.50;;
25359;SDS011;13311;51.386;0.016;2023-03-31T13:32:34;0.85;;;0.50;;
25359;SDS011;13311;51.386;0.016;2023-03-31T13:53:31;2.70;;;0.60;;
25359;SDS011;13311;51.386;0.016;2023-03-31T14:15:28;0.77;;;0.50;;
25359;SDS011;13311;51.386;0.016;2023-03-31T14:20:31;1.70;;;0.60;;
25359;SDS011;13311;51.386;0.016;2023-03-31T14:41:51;1.55;;;0.60;;
25359;SDS011;13311;51.386;0.016;2023-03-31T14:46:55;0.55;;;0.20;;
25359;SDS011;13311;51.386;0.016;2023-03-31T14:52:00;0.40;;;0.30;;
25359;SDS011;13311;51.386;0.016;2023-03-31T14:57:11;0.65;;;0.25;;
25359;SDS011;13311;51.386;0.016;2023-03-31T15:02:36;1.17;;;0.40;;
25359;SDS011;13311;51.386;0.016;2023-03-31T15:07:41;1.23;;;0.50;;
25359;SDS011;13311;51.386;0.016;2023-03-31T15:12:42;1.95;;;0.75;;
25359;SDS011;13311;51.386;0.016;2023-03-31T15:17:42;1.73;;;0.50;;
25359;SDS011;13311;51.386;0.016;2023-03-31T15:22:46;1.90;;;0.50;;
25359;SDS011;13311;51.386;0.016;2023-03-31T15:27:52;1.05;;;0.30;;
25359;SDS011;13311;51.386;0.016;2023-03-31T15:33:04;0.85;;;0.30;;
25359;SDS011;13311;51.386;0.016;2023-03-31T15:38:08;1.17;;;0.40;;
25359;SDS011;13311;51.386;0.016;2023-03-31T15:48:19;0.70;;;0.68;;
25359;SDS011;13311;51.386;0.016;2023-03-31T15:53:25;1.13;;;0.30;;
25359;SDS011;13311;51.386;0.016;2023-03-31T15:58:45;1.30;;;0.40;;
25359;SDS011;13311;51.386;0.016;2023-03-31T16:03:53;0.32;;;0.30;;
25359;SDS011;13311;51.386;0.016;2023-03-31T16:08:57;0.52;;;0.40;;
25359;SDS011;13311;51.386;0.016;2023-03-31T16:14:06;0.63;;;0.28;;
25359;SDS011;13311;51.386;0.016;2023-03-31T16:19:16;2.60;;;0.80;;
25359;SDS011;13311;51.386;0.016;2023-03-31T16:24:21;0.90;;;0.65;;
25359;SDS011;13311;51.386;0.016;2023-03-31T16:29:30;1.95;;;0.60;;
25359;SDS011;13311;51.386;0.016;2023-03-31T16:34:33;1.15;;;0.55;;
25359;SDS011;13311;51.386;0.016;2023-03-31T16:39:34;1.15;;;0.60;;
25359;SDS011;13311;51.386;0.016;2023-03-31T16:44:35;1.05;;;0.30;;
25359;SDS011;13311;51.386;0.016;2023-03-31T16:49:36;0.70;;;0.60;;
25359;SDS011;13311;51.386;0.016;2023-03-31T16:54:36;1.80;;;0.40;;
25359;SDS011;13311;51.386;0.016;2023-03-31T16:59:37;0.65;;;0.40;;
25359;SDS011;13311;51.386;0.016;2023-03-31T17:04:38;0.63;;;0.50;;
25359;SDS011;13311;51.386;0.016;2023-03-31T17:09:39;0.73;;;0.38;;
25359;SDS011;13311;51.386;0.016;2023-03-31T17:14:39;1.33;;;0.68;;
25359;SDS011;13311;51.386;0.016;2023-03-31T17:19:40;0.73;;;0.40;;
25359;SDS011;13311;51.386;0.016;2023-03-31T17:24:41;0.50;;;0.38;;
25359;SDS011;13311;51.386;0.016;2023-03-31T17:29:42;1.40;;;0.60;;
25359;SDS011;13311;51.386;0.016;2023-03-31T17:34:42;2.63;;;0.60;;
25359;SDS011;13311;51.386;0.016;2023-03-31T17:39:44;1.23;;;0.60;;
25359;SDS011;13311;51.386;0.016;2023-03-31T17:44:45;2.53;;;0.98;;
25359;SDS011;13311;51.386;0.016;2023-03-31T17:49:49;1.42;;;0.80;;
25359;SDS011;13311;51.386;0.016;2023-03-31T17:54:49;1.85;;;0.50;;
25359;SDS011;13311;51.386;0.016;2023-03-31T17:59:50;2.67;;;0.60;;
25359;SDS011;13311;51.386;0.016;2023-03-31T18:04:51;1.50;;;1.00;;
25359;SDS011;13311;51.386;0.016;2023-03-31T18:09:52;1.27;;;0.52;;
25359;SDS011;13311;51.386;0.016;2023-03-31T18:14:53;3.80;;;0.82;;
25359;SDS011;13311;51.386;0.016;2023-03-31T18:19:54;2.15;;;0.77;;
25359;SDS011;13311;51.386;0.016;2023-03-31T18:24:55;2.50;;;1.13;;
25359;SDS011;13311;51.386;0.016;2023-03-31T18:29:56;2.63;;;1.05;;
25359;SDS011;13311;51.386;0.016;2023-03-31T18:34:57;1.33;;;0.80;;
25359;SDS011;13311;51.386;0.016;2023-03-31T18:39:57;1.98;;;0.80;;
25359;SDS011;13311;51.386;0.016;2023-03-31T18:44:58;2.60;;;1.00;;
25359;SDS011;13311;51.386;0.016;2023-03-31T18:49:59;1.77;;;0.70;;
25359;SDS011;13311;51.386;0.016;2023-03-31T18:55:00;3.92;;;1.02;;
25359;SDS011;13311;51.386;0.016;2023-03-31T19:00:01;3.88;;;1.10;;
25359;SDS011;13311;51.386;0.016;2023-03-31T19:05:03;4.03;;;1.45;;
25359;SDS011;13311;51.386;0.016;2023-03-31T19:10:04;1.98;;;1.15;;
25359;SDS011;13311;51.386;0.016;2023-03-31T19:15:06;2.90;;;1.30;;
25359;SDS011;13311;51.386;0.016;2023-03-31T19:20:08;2.78;;;1.30;;
25359;SDS011;13311;51.386;0.016;2023-03-31T19:25:16;2.78;;;1.13;;
25359;SDS011;13311;51.386;0.016;2023-03-31T19:30:19;2.55;;;1.30;;
25359;SDS011;13311;51.386;0.016;2023-03-31T19:35:23;6.05;;;1.20;;
25359;SDS011;13311;51.386;0.016;2023-03-31T19:40:26;2.35;;;1.40;;
25359;SDS011;13311;51.386;0.016;2023-03-31T19:45:26;2.65;;;1.17;;
25359;SDS011;13311;51.386;0.016;2023-03-31T19:50:27;2.60;;;1.35;;
25359;SDS011;13311;51.386;0.016;2023-03-31T19:55:28;2.95;;;1.48;;
25359;SDS011;13311;51.386;0.016;2023-03-31T20:00:29;2.08;;;1.35;;
25359;SDS011;13311;51.386;0.016;2023-03-31T20:05:30;2.75;;;1.63;;
25359;SDS011;13311;51.386;0.016;2023-03-31T20:10:31;1.70;;;1.33;;
25359;SDS011;13311;51.386;0.016;2023-03-31T20:15:32;3.92;;;1.70;;
25359;SDS011;13311;51.386;0.016;2023-03-31T20:20:34;1.98;;;1.30;;
25359;SDS011;13311;51.386;0.016;2023-03-31T20:25:34;2.65;;;1.52;;
25359;SDS011;13311;51.386;0.016;2023-03-31T20:30:37;1.95;;;1.42;;
25359;SDS011;13311;51.386;0.016;2023-03-31T20:35:37;2.67;;;1.88;;
25359;SDS011;13311;51.386;0.016;2023-03-31T20:40:38;1.58;;;1.20;;
25359;SDS011;13311;51.386;0.016;2023-03-31T20:45:39;1.58;;;1.25;;
25359;SDS011;13311;51.386;0.016;2023-03-31T20:50:40;1.63;;;1.40;;
25359;SDS011;13311;51.386;0.016;2023-03-31T20:55:43;2.88;;;2.03;;
25359;SDS011;13311;51.386;0.016;2023-03-31T21:00:43;3.33;;;1.85;;
25359;SDS011;13311;51.386;0.016;2023-03-31T21:05:44;2.17;;;1.13;;
25359;SDS011;13311;51.386;0.016;2023-03-31T21:10:46;1.42;;;1.10;;
25359;SDS011;13311;51.386;0.016;2023-03-31T21:15:47;3.95;;;1.83;;
25359;SDS011;13311;51.386;0.016;2023-03-31T21:21:03;3.47;;;1.50;;
25359;SDS011;13311;51.386;0.016;2023-03-31T21:26:07;2.30;;;1.92;;
25359;SDS011;13311;51.386;0.016;2023-03-31T21:31:11;2.17;;;1.98;;
25359;SDS011;13311;51.386;0.016;2023-03-31T21:36:17;2.25;;;2.00;;
25359;SDS011;13311;51.386;0.016;2023-03-31T21:41:22;3.17;;;2.60;;
25359;SDS011;13311;51.386;0.016;2023-03-31T21:46:26;4.35;;;2.45;;
25359;SDS011;13311;51.386;0.016;2023-03-31T21:51:29;4.65;;;3.30;;
25359;SDS011;13311;51.386;0.016;2023-03-31T21:56:30;3.70;;;3.03;;
25359;SDS011;13311;51.386;0.016;2023-03-31T22:01:31;4.70;;;2.85;;
25359;SDS011;13311;51.386;0.016;2023-03-31T22:06:32;4.13;;;3.58;;
25359;SDS011;13311;51.386;0.016;2023-03-31T22:11:33;2.78;;;2.35;;
25359;SDS011;13311;51.386;0.016;2023-03-31T22:16:34;3.90;;;3.40;;
25359;SDS011;13311;51.386;0.016;2023-03-31T22:21:35;4.32;;;3.20;;
25359;SDS011;13311;51.386;0.016;2023-03-31T22:26:36;3.00;;;2.20;;
25359;SDS011;13311;51.386;0.016;2023-03-31T22:31:36;9.68;;;5.72;;
25359;SDS011;13311;51.386;0.016;2023-03-31T22:36:37;6.63;;;4.13;;
25359;SDS011;13311;51.386;0.016;2023-03-31T22:41:38;7.07;;;5.60;;
25359;SDS011;13311;51.386;0.016;2023-03-31T22:46:40;6.05;;;4.22;;
25359;SDS011;13311;51.386;0.016;2023-03-31T22:51:41;9.95;;;7.05;;
25359;SDS011;13311;51.386;0.016;2023-03-31T22:56:44;7.72;;;5.57;;
25359;SDS011;13311;51.386;0.016;2023-03-31T23:01:44;11.43;;;8.07;;
25359;SDS011;13311;51.386;0.016;2023-03-31T23:06:51;11.65;;;7.70;;
25359;SDS011;13311;51.386;0.016;2023-03-31T23:11:52;11.40;;;8.40;;
25359;SDS011;13311;51.386;0.016;2023-03-31T23:16:53;12.13;;;8.23;;
25359;SDS011;13311;51.386;0.016;2023-03-31T23:21:53;15.63;;;8.55;;
25359;SDS011;13311;51.386;0.016;2023-03-31T23:26:54;11.43;;;6.85;;
25359;SDS011;13311;51.386;0.016;2023-03-31T23:31:55;10.45;;;7.50;;
25359;SDS011;13311;51.386;0.016;2023-03-31T23:36:56;14.63;;;8.93;;
25359;SDS011;13311;51.386;0.016;2023-03-31T23:41:57;11.13;;;8.27;;
25359;SDS011;13311;51.386;0.016;2023-03-31T23:46:58;14.30;;;8.75;;
25359;SDS011;13311;51.386;0.016;2023-03-31T23:51:59;12.90;;;9.23;;
25359;SDS011;13311;51.386;0.016;2023-03-31T23:57:00;11.68;;;9.35;;
